Home > Products > Valid Products > TAF

000
FTUS45 KFGZ 230500
TAFINW
TAF
KINW 230539Z 2306/2406 VRB05KT P6SM FEW250=



000
FTUS45 KFGZ 230500
TAFFLG
TAF
KFLG 230539Z 2306/2406 VRB02KT P6SM FEW250
     FM231830 20007KT P6SM FEW250
     FM240100 VRB02KT P6SM SKC=



000
FTUS45 KFGZ 230500
TAFPGA
TAF
KPGA 230539Z 2306/2406 VRB04KT P6SM FEW250=



000
FTUS45 KFGZ 222300
TAFFLG
TAF
KFLG 222333Z 2300/2324 21010KT P6SM FEW060 SCT250
     FM230200 VRB02KT P6SM FEW250
     FM231830 20007KT P6SM FEW250=



000
FTUS45 KFGZ 222300
TAFPGA
TAF
KPGA 222333Z 2300/2324 VRB04KT P6SM FEW250=



000
FTUS45 KFGZ 222300
TAFINW
TAF
KINW 222333Z 2300/2324 VRB05KT P6SM FEW250=



000
FTUS45 KFGZ 221700
TAFFLG
TAF
KFLG 221720Z 2218/2318 21008KT P6SM FEW050 FEW250
     FM230200 VRB02KT P6SM FEW250=



000
FTUS45 KFGZ 221700
TAFPGA
TAF
KPGA 221720Z 2218/2318 VRB03KT P6SM FEW250=



000
FTUS45 KFGZ 221700
TAFINW
TAF
KINW 221720Z 2218/2318 VRB05KT P6SM FEW250=



000
FTUS45 KFGZ 221700
TAFFLG
TAF
KFLG 221720Z 2218/2318 21008KT P6SM FEW050 FEW250
     FM230200 VRB02KT P6SM FEW250=



000
FTUS45 KFGZ 221700
TAFPGA
TAF
KPGA 221720Z 2218/2318 VRB03KT P6SM FEW250=



000
FTUS45 KFGZ 221700
TAFINW
TAF
KINW 221720Z 2218/2318 VRB05KT P6SM FEW250=



000
FTUS45 KFGZ 221100
TAFFLG
TAF
KFLG 221120Z 2212/2312 VRB04KT P6SM FEW250
     FM221800 21010KT P6SM FEW250
     FM230200 VRB02KT P6SM FEW250=



000
FTUS45 KFGZ 221100
TAFPGA
TAF
KPGA 221120Z 2212/2312 VRB06KT P6SM FEW250=



000
FTUS45 KFGZ 221100
TAFINW
TAF
KINW 221120Z 2212/2312 VRB06KT P6SM FEW250=



000
FTUS45 KFGZ 220500
TAFPGA
TAF
KPGA 220534Z 2206/2306 VRB04KT P6SM FEW250
      TEMPO 2206/2208 BKN100=



000
FTUS45 KFGZ 220500
TAFINW
TAF
KINW 220534Z 2206/2306 VRB06KT P6SM FEW250=



000
FTUS45 KFGZ 220500
TAFFLG
TAF
KFLG 220534Z 2206/2306 VRB04KT P6SM FEW250
     FM221800 22009KT P6SM FEW250
     FM230200 VRB02KT P6SM FEW250=



000
FTUS45 KFGZ 220500
TAFFLG
TAF
KFLG 220534Z 2206/2306 VRB04KT P6SM FEW250
     FM221800 22009KT P6SM FEW250
     FM230200 VRB02KT P6SM FEW250=



000
FTUS45 KFGZ 220500
TAFPGA
TAF
KPGA 220534Z 2206/2306 VRB04KT P6SM FEW250
      TEMPO 2206/2208 BKN100=



000
FTUS45 KFGZ 220500
TAFINW
TAF
KINW 220534Z 2206/2306 VRB06KT P6SM FEW250=



000
FTUS45 KFGZ 212300
TAFINW
TAF
KINW 212334Z 2200/2224 VRB05KT P6SM SKC
      TEMPO 2200/2204 SCT110
     FM221900 32008KT P6SM SKC=



000
FTUS45 KFGZ 212300
TAFFLG
TAF
KFLG 212334Z 2200/2224 23010KT P6SM SCT060
     FM220200 VRB04KT P6SM FEW100
     FM221900 21008KT P6SM FEW090=



000
FTUS45 KFGZ 212300
TAFPGA
TAF
KPGA 212334Z 2200/2224 VRB04KT P6SM SKC
      TEMPO 2200/2204 SCT110=



000
FTUS45 KFGZ 211700
TAFINW
TAF
KINW 211739Z 2118/2218 VRB06KT P6SM SKC
     FM211900 16008KT P6SM SCT110
     FM220200 VRB04KT P6SM SKC=



000
FTUS45 KFGZ 211700
TAFPGA
TAF
KPGA 211739Z 2118/2218 VRB04KT P6SM SCT150=



000
FTUS45 KFGZ 211700
TAFFLG
TAF
KFLG 211739Z 2118/2218 23010KT P6SM SCT060
     FM220200 VRB04KT P6SM FEW100=



000
FTUS45 KFGZ 211100 RRA
TAFINW
TAF
KINW 211154Z 2112/2212 VRB06KT P6SM SKC
     FM211900 16008KT P6SM SCT110
     FM220200 VRB04KT P6SM SKC=



000
FTUS45 KFGZ 211100 RRA
TAFFLG
TAF
KFLG 211154Z 2112/2212 VRB04KT P6SM SKC
     FM211800 23010KT P6SM SCT070 BKN100
     FM220200 VRB04KT P6SM FEW100=



000
FTUS45 KFGZ 211100 RRA
TAFPGA
TAF
KPGA 211154Z 2112/2212 VRB04KT P6SM SCT250=



000
FTUS45 KFGZ 211100 RRA
TAFPGA
TAF
KPGA 211154Z 2112/2212 VRB04KT P6SM SCT250=



000
FTUS45 KFGZ 211100 RRA
TAFFLG
TAF
KFLG 211154Z 2112/2212 VRB04KT P6SM SKC
     FM211800 23010KT P6SM SCT070 BKN100
     FM220200 VRB04KT P6SM FEW100=



000
FTUS45 KFGZ 211100 RRA
TAFINW
TAF
KINW 211154Z 2112/2212 VRB06KT P6SM SKC
     FM211900 16008KT P6SM SCT110
     FM220200 VRB04KT P6SM SKC=



000
FTUS45 KFGZ 210600 CCA
TAFINW
TAF COR
KINW 210614Z 2106/2206 VRB04KT P6SM SKC
     FM211900 16008KT P6SM SCT100
     FM220200 VRB04KT P6SM SKC=



000
FTUS45 KFGZ 210600 CCA
TAFPGA
TAF COR
KPGA 210614Z 2106/2206 VRB04KT P6SM SCT100=



000
FTUS45 KFGZ 210600 CCA
TAFFLG
TAF COR
KFLG 210614Z 2106/2206 VRB04KT P6SM FEW250
     FM211800 21010KT P6SM SCT050 BKN100
     FM220200 VRB04KT P6SM FEW100=



000
FTUS45 KFGZ 202300
TAFFLG
TAF
KFLG 202324Z 2100/2124 VRB06KT P6SM VCSH BKN060
     FM210100 VRB04KT P6SM FEW120
     FM211800 21008KT P6SM FEW050 BKN070=



000
FTUS45 KFGZ 202300
TAFPGA
TAF
KPGA 202324Z 2100/2124 VRB04KT P6SM FEW150=



000
FTUS45 KFGZ 202300
TAFINW
TAF
KINW 202324Z 2100/2124 11006KT P6SM FEW120
     FM210200 VRB04KT P6SM SKC
     FM211900 15008KT P6SM SCT100=



000
FTUS45 KFGZ 202100 AAA
TAFFLG
TAF AMD
KFLG 202118Z 2021/2118 VRB06KT P6SM VCSH SCT050 BKN070
     FM210200 VRB04KT P6SM FEW120=



000
FTUS45 KFGZ 201700
TAFFLG
TAF
KFLG 201726Z 2018/2118 VRB04KT P6SM FEW080
     FM202000 14008KT P6SM SCT060
     FM210200 VRB04KT P6SM FEW120=



000
FTUS45 KFGZ 201700
TAFPGA
TAF
KPGA 201726Z 2018/2118 VRB04KT P6SM FEW150=



000
FTUS45 KFGZ 201700
TAFINW
TAF
KINW 201726Z 2018/2118 12006KT P6SM FEW100
     FM202000 09006KT P6SM SCT100
     FM210200 VRB04KT P6SM SKC=



000
FTUS45 KFGZ 201100
TAFPGA
TAF
KPGA 201127Z 2012/2112 VRB04KT P6SM FEW150
      AMD NOT SKED=



000
FTUS45 KFGZ 201100
TAFINW
TAF
KINW 201127Z 2012/2112 12006KT P6SM FEW100
     FM201800 09006KT P6SM SCT100
     FM210200 VRB04KT P6SM SKC=



000
FTUS45 KFGZ 201100
TAFFLG
TAF
KFLG 201127Z 2012/2112 VRB04KT P6SM FEW120
     FM201800 14008KT P6SM SCT060 BKN120
     FM210200 VRB04KT P6SM FEW120=



    US Dept of Commerce
    National Oceanic and Atmospheric Administration
    National Weather Service
    1325 East West Highway
    Silver Spring, MD 20910
    Page Author: NWS Internet Services Team
Disclaimer
Information Quality
Credits
Glossary
Privacy Policy
Freedom of Information Act (FOIA)
About Us
Career Opportunities